Time;durP1;ratioP1;P1;durP2;ratioP2;P2;SDS_P1;SDS_P2;PMS_P1;PMS_P2;Temp;Humidity;BMP_temperature;BMP_pressure;BME280_temperature;BME280_humidity;BME280_pressure;Samples;Min_cycle;Max_cycle;Signal;HPM_P1;HPM_P2
2023/10/27 00:01:10;;;;;;;0.43;0.43;;;19.30;99.90;;;;;;5046560;28;20614;-85
2023/10/27 00:03:35;;;;;;;0.30;0.20;;;19.30;99.90;;;;;;5047710;28;20195;-79
2023/10/27 00:06:01;;;;;;;0.30;0.20;;;19.30;99.90;;;;;;5046079;28;20220;-86
2023/10/27 00:08:27;;;;;;;1.23;0.60;;;19.30;99.90;;;;;;5079156;28;20821;-80
2023/10/27 00:10:53;;;;;;;0.30;0.20;;;19.30;99.90;;;;;;5047713;28;20438;-79
2023/10/27 00:13:20;;;;;;;0.30;0.20;;;19.30;99.90;;;;;;5046041;28;20240;-86
2023/10/27 00:15:45;;;;;;;0.30;0.20;;;19.30;99.90;;;;;;5079902;28;20488;-79
2023/10/27 00:18:12;;;;;;;0.30;0.20;;;19.30;99.90;;;;;;5047393;28;20439;-80
2023/10/27 00:20:38;;;;;;;0.30;0.20;;;19.30;99.90;;;;;;5047787;28;20504;-86
2023/10/27 00:23:04;;;;;;;0.30;0.20;;;19.20;99.90;;;;;;5046084;28;20417;-79
2023/10/27 00:25:29;;;;;;;0.30;0.30;;;19.20;99.90;;;;;;5047578;28;20860;-80
2023/10/27 00:27:55;;;;;;;0.30;0.20;;;19.20;99.90;;;;;;5046058;28;20498;-86
2023/10/27 00:30:21;;;;;;;0.30;0.20;;;19.20;99.90;;;;;;5047262;28;20212;-86
2023/10/27 00:32:47;;;;;;;0.30;0.20;;;19.20;99.90;;;;;;5047254;28;20259;-83
2023/10/27 00:35:12;;;;;;;0.30;0.20;;;19.20;99.90;;;;;;5047592;28;20232;-86
2023/10/27 00:37:40;;;;;;;0.30;0.20;;;19.20;99.90;;;;;;5045729;28;20316;-84
2023/10/27 00:40:07;;;;;;;1.33;1.23;;;19.20;99.90;;;;;;5047449;28;20232;-86
2023/10/27 00:42:33;;;;;;;0.30;0.20;;;19.20;99.90;;;;;;5045326;28;20426;-86
2023/10/27 00:44:58;;;;;;;0.30;0.20;;;19.10;99.90;;;;;;5045761;28;20466;-80
2023/10/27 00:47:24;;;;;;;0.30;0.30;;;19.10;99.90;;;;;;5046358;28;20712;-79
2023/10/27 00:49:51;;;;;;;0.30;0.20;;;19.00;99.90;;;;;;5045759;28;20224;-80
2023/10/27 00:52:18;;;;;;;0.30;0.20;;;19.00;99.90;;;;;;5046797;28;20763;-79
2023/10/27 00:54:45;;;;;;;0.30;0.20;;;19.00;99.90;;;;;;5046856;28;20442;-86
2023/10/27 00:57:11;;;;;;;0.40;0.20;;;19.00;99.90;;;;;;5045123;28;20421;-80
2023/10/27 00:59:37;;;;;;;0.30;0.20;;;19.00;99.90;;;;;;5046840;28;20456;-86
2023/10/27 01:02:03;;;;;;;0.30;0.30;;;19.00;99.90;;;;;;5046921;28;20179;-84
2023/10/27 01:04:29;;;;;;;0.60;0.60;;;19.00;99.90;;;;;;5045566;28;20201;-84
2023/10/27 01:06:56;;;;;;;0.30;0.20;;;18.90;99.90;;;;;;5045939;28;20868;-86
2023/10/27 01:09:21;;;;;;;1.03;0.83;;;19.00;99.90;;;;;;5044902;28;20216;-80
2023/10/27 01:11:48;;;;;;;0.30;0.20;;;18.90;99.90;;;;;;5046763;28;20486;-80
2023/10/27 01:14:14;;;;;;;1.03;0.90;;;18.90;99.90;;;;;;5046568;28;20410;-80
2023/10/27 01:16:40;;;;;;;0.30;0.20;;;18.90;99.90;;;;;;5046796;28;20911;-80
2023/10/27 01:19:06;;;;;;;4.43;0.93;;;18.80;99.90;;;;;;5046711;28;20176;-85
2023/10/27 01:21:31;;;;;;;0.30;0.20;;;18.80;99.90;;;;;;5044734;28;20528;-79
2023/10/27 01:23:57;;;;;;;0.30;0.20;;;18.80;99.90;;;;;;5045183;28;20185;-79
2023/10/27 01:26:23;;;;;;;0.60;0.60;;;18.80;99.90;;;;;;5078192;28;20224;-86
2023/10/27 01:28:48;;;;;;;0.30;0.30;;;18.80;99.90;;;;;;5045112;28;20728;-79
2023/10/27 01:31:15;;;;;;;0.30;0.20;;;18.80;99.90;;;;;;5044841;28;20198;-85
2023/10/27 01:33:41;;;;;;;0.40;0.30;;;18.80;99.90;;;;;;5046407;28;20658;-85
2023/10/27 01:36:06;;;;;;;0.30;0.20;;;18.80;99.90;;;;;;5046357;28;20441;-86
2023/10/27 01:38:32;;;;;;;0.30;0.30;;;18.80;99.90;;;;;;5046096;28;20639;-79
2023/10/27 01:40:58;;;;;;;0.30;0.27;;;18.70;99.90;;;;;;5046248;28;20442;-86
2023/10/27 01:43:23;;;;;;;0.40;0.40;;;18.60;99.90;;;;;;5045866;28;20229;-83
2023/10/27 01:45:49;;;;;;;0.30;0.20;;;18.50;99.90;;;;;;5044697;28;20200;-80
2023/10/27 01:48:15;;;;;;;0.30;0.20;;;18.40;99.90;;;;;;5044147;28;20188;-80
2023/10/27 01:50:41;;;;;;;0.30;0.30;;;18.30;99.90;;;;;;5046306;28;20196;-79
2023/10/27 01:53:07;;;;;;;0.30;0.30;;;18.20;99.90;;;;;;5045624;28;20267;-79
2023/10/27 01:55:32;;;;;;;0.30;0.20;;;18.20;99.90;;;;;;5044248;28;20948;-79
2023/10/27 01:57:58;;;;;;;0.30;0.20;;;18.20;99.90;;;;;;5045710;28;20179;-83
2023/10/27 02:00:24;;;;;;;0.40;0.40;;;18.10;99.90;;;;;;5044562;28;20561;-84
2023/10/27 02:02:49;;;;;;;0.77;0.60;;;18.00;99.90;;;;;;5044433;28;20260;-79
2023/10/27 02:05:15;;;;;;;0.30;0.20;;;18.00;99.90;;;;;;5044093;28;20283;-85
2023/10/27 02:07:41;;;;;;;0.30;0.20;;;17.90;99.90;;;;;;5044461;28;20247;-84
2023/10/27 02:10:07;;;;;;;0.30;0.20;;;17.90;99.90;;;;;;5045813;28;20203;-79
2023/10/27 02:12:32;;;;;;;0.30;0.20;;;17.90;99.90;;;;;;5045086;28;20256;-86
2023/10/27 02:14:58;;;;;;;0.30;0.20;;;17.90;99.90;;;;;;5044577;28;20519;-79
2023/10/27 02:17:24;;;;;;;0.30;0.20;;;17.90;99.90;;;;;;5045352;28;20180;-79
2023/10/27 02:19:50;;;;;;;0.30;0.20;;;17.80;99.90;;;;;;5044266;28;20196;-79
2023/10/27 02:22:19;;;;;;;0.30;0.20;;;17.80;99.90;;;;;;5077621;28;20790;-84
2023/10/27 02:24:45;;;;;;;1.07;0.67;;;17.80;99.90;;;;;;5078165;28;20646;-85
2023/10/27 02:27:11;;;;;;;0.30;0.20;;;17.80;99.90;;;;;;5045144;28;20544;-85
2023/10/27 02:29:36;;;;;;;0.30;0.20;;;17.80;99.90;;;;;;5044273;28;20198;-86
2023/10/27 02:32:02;;;;;;;0.50;0.50;;;17.80;99.90;;;;;;5044039;28;20432;-81
2023/10/27 02:34:28;;;;;;;0.30;0.20;;;17.80;99.90;;;;;;5045721;28;20249;-81
2023/10/27 02:36:54;;;;;;;0.30;0.20;;;17.80;99.90;;;;;;5043823;28;20461;-79
2023/10/27 02:39:20;;;;;;;0.30;0.20;;;17.80;99.90;;;;;;5044041;28;20507;-79
2023/10/27 02:41:46;;;;;;;0.30;0.20;;;17.80;99.90;;;;;;5043858;28;20430;-86
2023/10/27 02:44:12;;;;;;;0.30;0.20;;;17.80;99.90;;;;;;5045121;28;20184;-85
2023/10/27 02:46:39;;;;;;;0.30;0.20;;;17.80;99.90;;;;;;5043822;28;20207;-86
2023/10/27 02:49:05;;;;;;;0.30;0.20;;;17.80;99.90;;;;;;5043786;28;20931;-79
2023/10/27 02:51:31;;;;;;;0.30;0.20;;;17.80;99.90;;;;;;5045288;28;20443;-79
2023/10/27 02:53:57;;;;;;;0.30;0.20;;;17.80;99.90;;;;;;5077847;28;20423;-79
2023/10/27 02:56:24;;;;;;;0.30;0.20;;;17.70;99.90;;;;;;5045075;28;20451;-80
2023/10/27 02:58:50;;;;;;;0.30;0.20;;;17.70;99.90;;;;;;5043860;28;20429;-85
2023/10/27 03:01:16;;;;;;;0.40;0.30;;;17.70;99.90;;;;;;5043938;28;20448;-80
2023/10/27 03:03:45;;;;;;;0.30;0.20;;;17.70;99.90;;;;;;5043737;28;20491;-85
2023/10/27 03:06:11;;;;;;;0.30;0.20;;;17.60;99.90;;;;;;5043888;28;20226;-80
2023/10/27 03:08:38;;;;;;;0.40;0.30;;;17.60;99.90;;;;;;5045218;28;20501;-80
2023/10/27 03:11:04;;;;;;;0.30;0.20;;;17.60;99.90;;;;;;5043959;28;21039;-85
2023/10/27 03:13:31;;;;;;;0.40;0.40;;;17.60;99.90;;;;;;5045024;28;20803;-79
2023/10/27 03:16:01;;;;;;;0.30;0.20;;;17.60;99.90;;;;;;5045994;28;21042;-85
2023/10/27 03:18:26;;;;;;;0.30;0.20;;;17.60;99.90;;;;;;5047300;28;20432;-80
2023/10/27 03:21:00;;;;;;;0.30;0.20;;;17.60;99.90;;;;;;5048839;28;20934;-86
2023/10/27 03:23:27;;;;;;;0.30;0.20;;;17.60;99.90;;;;;;5080779;28;20187;-80
2023/10/27 03:25:53;;;;;;;0.40;0.20;;;17.60;99.90;;;;;;5046983;28;20598;-86
2023/10/27 03:28:20;;;;;;;0.60;0.60;;;17.60;99.90;;;;;;5048274;28;20413;-79
2023/10/27 03:30:47;;;;;;;0.30;0.20;;;17.60;99.90;;;;;;5048386;28;20444;-86
2023/10/27 03:33:13;;;;;;;0.30;0.20;;;17.60;99.90;;;;;;5046956;28;20998;-80
2023/10/27 03:35:42;;;;;;;2.10;2.00;;;17.60;99.90;;;;;;5047088;28;20447;-80
2023/10/27 03:38:11;;;;;;;0.30;0.20;;;17.60;99.90;;;;;;5046993;28;20187;-86
2023/10/27 03:40:41;;;;;;;0.30;0.20;;;17.60;99.90;;;;;;5047375;28;20545;-80
2023/10/27 03:43:06;;;;;;;0.30;0.20;;;17.60;99.90;;;;;;5046608;28;20488;-79
2023/10/27 03:45:34;;;;;;;0.30;0.20;;;17.60;99.90;;;;;;5047873;28;20439;-80
2023/10/27 03:47:59;;;;;;;0.30;0.20;;;17.60;99.90;;;;;;5046349;28;20219;-80
2023/10/27 03:50:25;;;;;;;0.30;0.20;;;17.60;99.90;;;;;;5048012;28;20928;-86
2023/10/27 03:52:50;;;;;;;0.30;0.20;;;17.60;99.90;;;;;;5047900;28;20221;-85
2023/10/27 03:55:16;;;;;;;0.30;0.20;;;17.60;99.90;;;;;;5047027;28;20256;-81
2023/10/27 03:57:42;;;;;;;0.40;0.40;;;17.60;99.90;;;;;;5048136;28;20418;-81
2023/10/27 04:00:08;;;;;;;0.30;0.20;;;17.60;99.90;;;;;;5047192;28;20210;-86
2023/10/27 04:02:35;;;;;;;0.60;0.60;;;17.60;99.90;;;;;;5047673;28;20180;-80
2023/10/27 04:05:00;;;;;;;0.30;0.20;;;17.50;99.90;;;;;;5046322;28;20479;-86
2023/10/27 04:07:27;;;;;;;0.30;0.20;;;17.50;99.90;;;;;;5046130;28;20997;-85
2023/10/27 04:09:53;;;;;;;0.30;0.20;;;17.50;99.90;;;;;;5045967;28;20225;-86
2023/10/27 04:12:19;;;;;;;1.83;1.73;;;17.50;99.90;;;;;;5046480;28;20400;-83
2023/10/27 04:14:44;;;;;;;0.30;0.20;;;17.40;99.90;;;;;;5046279;28;20535;-86
2023/10/27 04:17:10;;;;;;;0.30;0.20;;;17.40;99.90;;;;;;5047453;28;20499;-80
2023/10/27 04:19:36;;;;;;;0.30;0.20;;;17.40;99.90;;;;;;5047648;28;20185;-80
2023/10/27 04:22:02;;;;;;;0.30;0.20;;;17.40;99.90;;;;;;5047334;28;20218;-84
2023/10/27 04:24:28;;;;;;;0.50;0.50;;;17.40;99.90;;;;;;5046894;28;20731;-80
2023/10/27 04:26:54;;;;;;;0.30;0.20;;;17.30;99.90;;;;;;5046970;28;20484;-79
2023/10/27 04:29:19;;;;;;;0.30;0.20;;;17.30;99.90;;;;;;5046494;28;20644;-85
2023/10/27 04:31:46;;;;;;;0.30;0.20;;;17.30;99.90;;;;;;5045888;28;20417;-80
2023/10/27 04:34:12;;;;;;;0.30;0.20;;;17.20;99.90;;;;;;5047201;28;20665;-79
2023/10/27 04:36:37;;;;;;;0.30;0.20;;;17.20;99.90;;;;;;5045173;28;20435;-79
2023/10/27 04:39:04;;;;;;;0.50;0.50;;;17.20;99.90;;;;;;5045122;28;20407;-79
2023/10/27 04:41:30;;;;;;;1.03;0.97;;;17.20;99.90;;;;;;5045190;28;20179;-86
2023/10/27 04:43:56;;;;;;;0.30;0.30;;;17.20;99.90;;;;;;5046221;28;20403;-80
2023/10/27 04:46:22;;;;;;;0.30;0.30;;;17.20;99.90;;;;;;5044864;28;20479;-85
2023/10/27 04:48:48;;;;;;;0.50;0.50;;;17.20;99.90;;;;;;5044607;28;20884;-80
2023/10/27 04:51:14;;;;;;;0.30;0.20;;;17.10;99.90;;;;;;5043777;28;20437;-85
2023/10/27 04:53:40;;;;;;;0.30;0.20;;;17.20;99.90;;;;;;5040563;28;20203;-79
2023/10/27 04:56:06;;;;;;;0.30;0.20;;;17.20;99.90;;;;;;5024734;28;20725;-86
2023/10/27 04:58:32;;;;;;;0.30;0.20;;;17.20;99.90;;;;;;5025088;28;20427;-79
2023/10/27 05:00:58;;;;;;;0.30;0.20;;;17.20;99.90;;;;;;5026762;28;20443;-87
2023/10/27 05:03:24;;;;;;;0.30;0.20;;;17.10;99.90;;;;;;5045699;28;20573;-88
2023/10/27 05:05:49;;;;;;;1.37;1.07;;;17.10;99.90;;;;;;5078112;28;20948;-85
2023/10/27 05:08:16;;;;;;;0.30;0.20;;;17.10;99.90;;;;;;5078076;28;20785;-85
2023/10/27 05:10:42;;;;;;;0.30;0.20;;;17.10;99.90;;;;;;5043924;28;20282;-79
2023/10/27 05:13:08;;;;;;;0.30;0.20;;;17.10;99.90;;;;;;5043606;28;20569;-79
2023/10/27 05:15:34;;;;;;;0.70;0.70;;;17.10;99.90;;;;;;5043078;28;20443;-80
2023/10/27 05:18:04;;;;;;;0.30;0.20;;;16.90;99.90;;;;;;5044733;28;20418;-84
2023/10/27 05:20:35;;;;;;;0.30;0.20;;;16.90;99.90;;;;;;5045719;28;20203;-85
2023/10/27 05:23:00;;;;;;;0.30;0.20;;;16.90;99.90;;;;;;5043424;28;20436;-79
2023/10/27 05:25:26;;;;;;;0.73;0.73;;;16.80;99.90;;;;;;5045096;28;20450;-80
2023/10/27 05:27:51;;;;;;;0.30;0.20;;;16.80;99.90;;;;;;5045320;28;20697;-79
2023/10/27 05:30:17;;;;;;;2.33;2.23;;;16.80;99.90;;;;;;5043372;28;20202;-86
2023/10/27 05:32:43;;;;;;;0.30;0.20;;;16.80;99.90;;;;;;5043644;28;20669;-79
2023/10/27 05:35:08;;;;;;;0.30;0.20;;;16.80;99.90;;;;;;5044796;28;20276;-83
2023/10/27 05:37:34;;;;;;;0.40;0.40;;;16.80;99.90;;;;;;5044563;28;20171;-79
2023/10/27 05:40:00;;;;;;;0.40;0.40;;;16.70;99.90;;;;;;5043231;28;20195;-79
2023/10/27 05:42:25;;;;;;;1.13;1.03;;;16.80;99.90;;;;;;5044939;28;20690;-85
2023/10/27 05:44:51;;;;;;;0.30;0.20;;;16.70;99.90;;;;;;5067487;28;20201;-87
2023/10/27 05:47:19;;;;;;;0.30;0.20;;;16.80;99.90;;;;;;5042734;28;20214;-85
2023/10/27 05:49:45;;;;;;;0.30;0.20;;;16.80;99.90;;;;;;5040950;28;20194;-87
2023/10/27 05:52:10;;;;;;;0.30;0.20;;;16.80;99.90;;;;;;5041364;28;20469;-80
2023/10/27 05:54:39;;;;;;;0.30;0.20;;;16.80;99.90;;;;;;5040396;28;20431;-79
2023/10/27 05:57:07;;;;;;;0.30;0.20;;;16.80;99.90;;;;;;5043725;28;20642;-80
2023/10/27 05:59:32;;;;;;;0.30;0.20;;;16.90;99.90;;;;;;5041492;28;20450;-86
2023/10/27 06:01:58;;;;;;;0.30;0.20;;;16.90;99.90;;;;;;5040086;28;20433;-79
2023/10/27 06:04:24;;;;;;;2.30;2.20;;;16.90;99.90;;;;;;5041227;28;20288;-79
2023/10/27 06:06:50;;;;;;;0.30;0.20;;;16.90;99.90;;;;;;5041497;28;20558;-79
2023/10/27 06:09:16;;;;;;;0.30;0.20;;;16.90;99.90;;;;;;5043160;28;20820;-79
2023/10/27 06:11:41;;;;;;;0.30;0.20;;;16.90;99.90;;;;;;5042534;28;20593;-79
2023/10/27 06:14:07;;;;;;;0.30;0.20;;;16.90;99.90;;;;;;5040841;28;20702;-86
2023/10/27 06:16:33;;;;;;;0.40;0.40;;;16.90;99.90;;;;;;5039904;28;20174;-79
2023/10/27 06:18:59;;;;;;;3.87;2.10;;;16.90;99.90;;;;;;5039743;28;20484;-79
2023/10/27 06:21:25;;;;;;;0.30;0.20;;;16.90;99.90;;;;;;5037994;28;20446;-79
2023/10/27 06:23:51;;;;;;;0.30;0.20;;;16.80;99.90;;;;;;5039902;28;20441;-80
2023/10/27 06:26:17;;;;;;;0.30;0.20;;;16.80;99.90;;;;;;5039439;28;20998;-79
2023/10/27 06:28:42;;;;;;;0.30;0.20;;;16.80;99.90;;;;;;5038253;28;20190;-80
2023/10/27 06:31:09;;;;;;;0.30;0.20;;;16.80;99.90;;;;;;5038074;28;20627;-88
2023/10/27 06:33:36;;;;;;;0.30;0.20;;;16.80;99.90;;;;;;5036428;28;20886;-89
2023/10/27 06:36:02;;;;;;;0.97;0.97;;;16.80;99.90;;;;;;5034915;28;21176;-90
2023/10/27 06:38:29;;;;;;;0.30;0.20;;;16.80;99.90;;;;;;5035115;28;20605;-89
2023/10/27 06:40:55;;;;;;;0.30;0.20;;;16.80;99.90;;;;;;5035810;28;20455;-91
2023/10/27 06:43:21;;;;;;;0.30;0.20;;;16.90;99.90;;;;;;5041426;28;20427;-90
2023/10/27 06:45:46;;;;;;;0.30;0.20;;;16.90;99.90;;;;;;5040243;28;20568;-84
2023/10/27 06:48:12;;;;;;;0.30;0.20;;;16.90;99.90;;;;;;5035210;28;20194;-84
2023/10/27 06:50:38;;;;;;;1.03;1.03;;;17.00;99.90;;;;;;5028309;28;20199;-90
2023/10/27 06:53:03;;;;;;;0.30;0.20;;;17.00;99.90;;;;;;5058248;28;20276;-89
2023/10/27 06:55:29;;;;;;;0.30;0.20;;;17.00;99.90;;;;;;5040032;28;20685;-84
2023/10/27 06:57:55;;;;;;;0.30;0.20;;;17.00;99.90;;;;;;5043543;28;20191;-84
2023/10/27 07:00:21;;;;;;;0.30;0.20;;;17.10;99.90;;;;;;5045799;28;20909;-84
2023/10/27 07:02:47;;;;;;;0.30;0.20;;;17.10;99.90;;;;;;5036673;28;20184;-89
2023/10/27 07:05:16;;;;;;;0.30;0.20;;;17.20;99.90;;;;;;5038381;28;21128;-84
2023/10/27 07:07:47;;;;;;;0.30;0.20;;;17.20;99.90;;;;;;5046479;28;20483;-91
2023/10/27 07:10:13;;;;;;;0.30;0.30;;;17.30;99.90;;;;;;5044726;28;20982;-84
2023/10/27 07:12:38;;;;;;;1.40;1.30;;;17.30;99.90;;;;;;5046284;28;20812;-86
2023/10/27 07:15:04;;;;;;;0.30;0.20;;;17.30;99.90;;;;;;5046339;28;20215;-90
2023/10/27 07:17:30;;;;;;;0.30;0.20;;;17.30;99.90;;;;;;5044563;28;20179;-89
2023/10/27 07:19:56;;;;;;;0.30;0.20;;;17.40;99.90;;;;;;5045442;28;20750;-90
2023/10/27 07:22:22;;;;;;;0.30;0.20;;;17.30;99.90;;;;;;5068262;28;20948;-84
2023/10/27 07:24:48;;;;;;;0.30;0.20;;;17.30;99.90;;;;;;5044999;28;20590;-90
2023/10/27 07:27:14;;;;;;;0.30;0.20;;;17.30;99.90;;;;;;5075551;28;20746;-89
2023/10/27 07:29:40;;;;;;;0.30;0.20;;;17.30;99.90;;;;;;5043250;28;20245;-84
2023/10/27 07:32:06;;;;;;;0.30;0.20;;;17.30;99.90;;;;;;5045649;28;20788;-90
2023/10/27 07:34:32;;;;;;;0.30;0.20;;;17.30;99.90;;;;;;5042921;28;20194;-83
2023/10/27 07:36:58;;;;;;;0.30;0.20;;;17.30;99.90;;;;;;5038541;28;20952;-90
2023/10/27 07:39:24;;;;;;;0.30;0.20;;;17.30;99.90;;;;;;5043074;28;20197;-90
2023/10/27 07:41:53;;;;;;;0.30;0.30;;;17.40;99.90;;;;;;5045616;28;20917;-89
2023/10/27 07:44:19;;;;;;;2.33;2.23;;;17.40;99.90;;;;;;5045123;28;20230;-89
2023/10/27 07:46:45;;;;;;;0.60;0.60;;;17.40;99.90;;;;;;5040342;28;21181;-84
2023/10/27 07:49:10;;;;;;;0.53;0.53;;;17.40;99.90;;;;;;5044704;28;20261;-85
2023/10/27 07:51:36;;;;;;;0.30;0.20;;;17.50;99.90;;;;;;5068497;28;20937;-82
2023/10/27 07:54:04;;;;;;;0.50;0.50;;;17.60;99.90;;;;;;5043241;28;20424;-82
2023/10/27 07:56:30;;;;;;;0.87;0.87;;;17.60;99.90;;;;;;5074164;28;20464;-81
2023/10/27 07:58:55;;;;;;;0.30;0.20;;;17.60;99.90;;;;;;5045482;28;20419;-80
2023/10/27 08:01:21;;;;;;;0.37;0.30;;;17.60;99.90;;;;;;5044482;28;20498;-80
2023/10/27 08:03:47;;;;;;;0.30;0.20;;;17.70;99.90;;;;;;5043696;28;20231;-80
2023/10/27 08:06:13;;;;;;;0.77;0.77;;;17.80;99.90;;;;;;5069997;28;20237;-80
2023/10/27 08:08:39;;;;;;;0.30;0.20;;;17.80;99.90;;;;;;5045038;28;20408;-79
2023/10/27 08:11:05;;;;;;;0.30;0.20;;;17.90;99.90;;;;;;5042733;28;20471;-89
2023/10/27 08:13:31;;;;;;;0.30;0.20;;;17.90;99.90;;;;;;5041138;28;20316;-80
2023/10/27 08:16:01;;;;;;;0.30;0.20;;;17.90;99.90;;;;;;5039776;28;20291;-81
2023/10/27 08:18:27;;;;;;;1.37;0.70;;;18.00;99.90;;;;;;5045412;28;20424;-78
2023/10/27 08:20:54;;;;;;;0.30;0.20;;;18.00;99.90;;;;;;5034996;28;20459;-87
2023/10/27 08:23:20;;;;;;;0.30;0.20;;;18.10;99.90;;;;;;5027259;28;20192;-79
2023/10/27 08:25:52;;;;;;;0.30;0.20;;;18.10;99.90;;;;;;5029823;28;20492;-86
2023/10/27 08:28:19;;;;;;;1.33;1.07;;;18.20;99.90;;;;;;5040386;28;20198;-80
2023/10/27 08:30:45;;;;;;;0.30;0.30;;;18.20;99.90;;;;;;5039670;28;20967;-81
2023/10/27 08:33:11;;;;;;;0.30;0.20;;;18.20;99.90;;;;;;5041570;28;20421;-84
2023/10/27 08:35:36;;;;;;;0.30;0.20;;;18.20;99.90;;;;;;5040834;28;20208;-87
2023/10/27 08:38:02;;;;;;;0.30;0.20;;;18.30;99.90;;;;;;5060296;28;20978;-84
2023/10/27 08:40:28;;;;;;;0.30;0.20;;;18.30;99.90;;;;;;5034410;28;20353;-80
2023/10/27 08:42:55;;;;;;;0.30;0.20;;;18.30;99.90;;;;;;5039903;28;20259;-83
2023/10/27 08:45:23;;;;;;;0.60;0.60;;;18.30;99.90;;;;;;5043243;28;20785;-80
2023/10/27 08:47:49;;;;;;;0.30;0.20;;;18.40;99.90;;;;;;5041885;28;20560;-86
2023/10/27 08:50:16;;;;;;;0.30;0.20;;;18.40;99.90;;;;;;5041872;28;21046;-82
2023/10/27 08:52:43;;;;;;;0.30;0.20;;;18.40;99.90;;;;;;5043016;28;20431;-87
2023/10/27 08:55:10;;;;;;;0.30;0.20;;;18.40;99.90;;;;;;5053098;28;20480;-82
2023/10/27 08:57:37;;;;;;;0.30;0.20;;;18.30;99.90;;;;;;5055040;28;21189;-81
2023/10/27 09:00:06;;;;;;;0.30;0.20;;;18.40;99.90;;;;;;5040436;28;21132;-85
2023/10/27 09:02:32;;;;;;;0.30;0.20;;;18.40;99.90;;;;;;5040968;28;20442;-89
2023/10/27 09:05:09;;;;;;;0.30;0.20;;;18.40;99.90;;;;;;5039860;28;20572;-87
2023/10/27 09:07:35;;;;;;;0.30;0.30;;;18.50;99.90;;;;;;5035047;28;20475;-89
2023/10/27 09:10:03;;;;;;;0.30;0.20;;;18.50;99.90;;;;;;5068450;28;20511;-85
2023/10/27 09:12:36;;;;;;;0.30;0.20;;;18.60;99.90;;;;;;5040653;28;20559;-85
2023/10/27 09:15:12;;;;;;;0.30;0.20;;;18.60;99.90;;;;;;5041687;28;20919;-81
2023/10/27 09:18:08;;;;;;;0.30;0.20;;;18.70;99.90;;;;;;5042793;28;20821;-80
2023/10/27 09:20:47;;;;;;;0.30;0.20;;;18.70;99.90;;;;;;5045156;28;20461;-81
2023/10/27 09:23:12;;;;;;;0.30;0.20;;;18.70;99.90;;;;;;5040211;28;20453;-83
2023/10/27 09:25:38;;;;;;;0.87;0.77;;;18.70;99.90;;;;;;5043555;28;20970;-83
2023/10/27 09:28:06;;;;;;;0.30;0.20;;;18.70;99.90;;;;;;5042341;28;20273;-81
2023/10/27 09:30:37;;;;;;;0.30;0.20;;;18.70;99.90;;;;;;5042463;28;20205;-79
2023/10/27 09:33:19;;;;;;;0.30;0.20;;;18.70;99.90;;;;;;5044126;28;20463;-79
2023/10/27 09:35:48;;;;;;;0.30;0.20;;;18.70;99.90;;;;;;5077074;28;20831;-81
2023/10/27 09:38:15;;;;;;;0.30;0.20;;;18.80;99.90;;;;;;5043174;28;20426;-79
2023/10/27 09:40:42;;;;;;;0.30;0.27;;;18.80;99.90;;;;;;5044056;28;20588;-86
2023/10/27 09:43:19;;;;;;;0.60;0.60;;;18.90;99.90;;;;;;5049123;28;20428;-80
2023/10/27 09:45:55;;;;;;;0.30;0.20;;;18.90;99.90;;;;;;5065373;28;20531;-89
2023/10/27 09:48:29;;;;;;;0.30;0.20;;;18.90;99.90;;;;;;5050233;28;20607;-90
2023/10/27 09:51:17;;;;;;;1.13;0.90;;;19.00;99.90;;;;;;5040029;28;20453;-89
2023/10/27 09:53:47;;;;;;;0.30;0.20;;;19.00;99.90;;;;;;5063531;28;20422;-80
2023/10/27 09:56:14;;;;;;;0.30;0.20;;;19.00;99.90;;;;;;5044355;28;21049;-88
2023/10/27 09:58:40;;;;;;;0.33;0.20;;;19.00;99.90;;;;;;5041771;28;20441;-89
2023/10/27 10:01:06;;;;;;;0.30;0.20;;;19.00;99.90;;;;;;5065077;28;20953;-82
2023/10/27 10:03:33;;;;;;;0.30;0.20;;;19.00;99.90;;;;;;5041541;28;20426;-89
2023/10/27 10:06:23;;;;;;;0.30;0.20;;;19.10;99.90;;;;;;5038849;28;21074;-82
2023/10/27 10:09:11;;;;;;;0.30;0.20;;;19.10;99.90;;;;;;5034357;28;20441;-87
2023/10/27 10:11:47;;;;;;;0.30;0.20;;;19.10;99.90;;;;;;5034351;28;20893;-85
2023/10/27 10:14:39;;;;;;;0.30;0.20;;;19.20;99.90;;;;;;5050316;28;21193;-85
2023/10/27 10:17:05;;;;;;;0.30;0.20;;;19.20;99.90;;;;;;5049089;28;20436;-89
2023/10/27 10:19:50;;;;;;;0.30;0.20;;;19.20;99.90;;;;;;5031567;28;20446;-90
2023/10/27 10:22:38;;;;;;;0.30;0.20;;;19.20;99.90;;;;;;5065392;28;20536;-88
2023/10/27 10:25:19;;;;;;;0.30;0.20;;;19.30;99.90;;;;;;5032599;28;20960;-88
2023/10/27 10:28:06;;;;;;;0.30;0.20;;;19.20;99.90;;;;;;5055385;28;20471;-80
2023/10/27 10:30:42;;;;;;;0.30;0.20;;;19.30;99.90;;;;;;5044794;28;20484;-82
2023/10/27 10:33:16;;;;;;;0.30;0.20;;;19.30;99.90;;;;;;5045500;28;20426;-80
2023/10/27 10:35:43;;;;;;;0.30;0.20;;;19.30;99.90;;;;;;5037053;28;20596;-82
2023/10/27 10:38:24;;;;;;;0.30;0.20;;;19.30;99.90;;;;;;5039396;28;20426;-91
2023/10/27 10:40:55;;;;;;;0.30;0.20;;;19.40;99.90;;;;;;5044037;28;20436;-80
2023/10/27 10:43:23;;;;;;;0.30;0.20;;;19.40;99.90;;;;;;5068208;28;20529;-89
2023/10/27 10:46:06;;;;;;;0.30;0.20;;;19.40;99.90;;;;;;5045455;28;20443;-83
2023/10/27 10:48:39;;;;;;;0.30;0.20;;;19.30;99.90;;;;;;5044046;28;20453;-83
2023/10/27 10:51:15;;;;;;;0.30;0.20;;;19.40;99.90;;;;;;5043540;28;20533;-82
2023/10/27 10:53:42;;;;;;;0.30;0.20;;;19.30;99.90;;;;;;5066328;28;20427;-86
2023/10/27 10:56:08;;;;;;;0.40;0.30;;;19.30;99.90;;;;;;5044023;28;20449;-78
2023/10/27 10:58:36;;;;;;;0.30;0.20;;;19.30;99.90;;;;;;5042474;28;20434;-80
2023/10/27 11:01:05;;;;;;;0.30;0.20;;;19.30;99.90;;;;;;5041570;28;20449;-85
2023/10/27 11:03:33;;;;;;;0.30;0.20;;;19.20;99.90;;;;;;5042831;28;20455;-86
2023/10/27 11:06:05;;;;;;;0.30;0.20;;;19.20;99.90;;;;;;5039003;28;20492;-88
2023/10/27 11:08:34;;;;;;;0.30;0.20;;;19.20;99.90;;;;;;5037984;28;20414;-80
2023/10/27 11:11:09;;;;;;;0.30;0.20;;;19.20;99.90;;;;;;5041318;28;20453;-88
2023/10/27 11:13:41;;;;;;;0.30;0.20;;;19.30;99.90;;;;;;5043130;28;20564;-86
2023/10/27 11:16:18;;;;;;;0.30;0.20;;;19.30;99.90;;;;;;5040139;28;20542;-87
2023/10/27 11:18:45;;;;;;;0.30;0.20;;;19.30;99.90;;;;;;5044040;28;20920;-82
2023/10/27 11:21:16;;;;;;;0.30;0.20;;;19.30;99.90;;;;;;5047187;28;20461;-81
2023/10/27 11:23:42;;;;;;;0.30;0.20;;;19.30;99.90;;;;;;5046685;28;20427;-82
2023/10/27 11:26:08;;;;;;;0.30;0.20;;;19.30;99.90;;;;;;5036007;28;20511;-85
2023/10/27 11:28:39;;;;;;;0.60;0.60;;;19.40;99.90;;;;;;5039996;28;20425;-86
2023/10/27 11:31:12;;;;;;;0.30;0.20;;;19.40;99.90;;;;;;5042014;28;20446;-83
2023/10/27 11:34:00;;;;;;;0.30;0.20;;;19.40;99.90;;;;;;5053535;28;20535;-81
2023/10/27 11:36:28;;;;;;;0.30;0.20;;;19.50;99.90;;;;;;5038483;28;20577;-81
2023/10/27 11:38:54;;;;;;;0.30;0.20;;;19.50;99.90;;;;;;5038515;28;20450;-80
2023/10/27 11:41:19;;;;;;;0.40;0.30;;;19.60;99.90;;;;;;5040745;28;20446;-81
2023/10/27 11:43:46;;;;;;;0.30;0.20;;;19.60;99.90;;;;;;5039620;28;20437;-82
2023/10/27 11:46:16;;;;;;;0.30;0.20;;;19.60;99.90;;;;;;5040344;28;20213;-80
2023/10/27 11:48:43;;;;;;;0.30;0.20;;;19.60;99.90;;;;;;5041547;28;20430;-88
2023/10/27 11:51:10;;;;;;;0.30;0.20;;;19.60;99.90;;;;;;5039890;28;21104;-88
2023/10/27 11:53:44;;;;;;;0.30;0.30;;;19.60;99.90;;;;;;5041276;28;20454;-81
2023/10/27 11:56:10;;;;;;;0.30;0.20;;;19.60;99.90;;;;;;5037248;28;20474;-87
2023/10/27 11:58:37;;;;;;;0.87;0.87;;;19.50;99.90;;;;;;5041732;28;20479;-87
2023/10/27 12:01:02;;;;;;;0.30;0.20;;;19.50;99.90;;;;;;5040998;28;20462;-85
2023/10/27 12:03:28;;;;;;;0.30;0.20;;;19.50;99.90;;;;;;5035654;28;21020;-85
2023/10/27 12:05:54;;;;;;;0.30;0.20;;;19.60;99.90;;;;;;5037070;28;20769;-80
2023/10/27 12:08:20;;;;;;;0.30;0.20;;;19.70;99.90;;;;;;5039966;28;20217;-81
2023/10/27 12:10:52;;;;;;;0.40;0.40;;;19.70;99.90;;;;;;5033691;28;20753;-83
2023/10/27 12:13:21;;;;;;;0.30;0.20;;;19.80;99.90;;;;;;5039267;28;21252;-81
2023/10/27 12:15:47;;;;;;;0.30;0.30;;;19.90;99.90;;;;;;5047027;28;20489;-80
2023/10/27 12:18:14;;;;;;;3.23;2.93;;;20.00;99.90;;;;;;5046780;28;20429;-89
2023/10/27 12:20:40;;;;;;;0.30;0.20;;;20.10;99.90;;;;;;5035727;28;20458;-88
2023/10/27 12:23:09;;;;;;;0.30;0.20;;;20.20;99.90;;;;;;5036943;28;20474;-83
2023/10/27 12:25:35;;;;;;;0.30;0.20;;;20.30;99.90;;;;;;5035831;28;20467;-86
2023/10/27 12:28:02;;;;;;;0.30;0.20;;;20.40;99.90;;;;;;5035847;28;20605;-81
2023/10/27 12:30:28;;;;;;;0.30;0.20;;;20.40;99.90;;;;;;5037050;28;20466;-81
2023/10/27 12:32:53;;;;;;;0.33;0.30;;;20.40;99.90;;;;;;5039454;28;20417;-80
2023/10/27 12:35:22;;;;;;;0.40;0.40;;;20.40;99.90;;;;;;5036807;28;20276;-86
2023/10/27 12:37:53;;;;;;;0.30;0.20;;;20.40;99.90;;;;;;5045881;28;20200;-84
2023/10/27 12:40:20;;;;;;;0.30;0.20;;;20.50;99.90;;;;;;5048967;28;20447;-84
2023/10/27 12:42:45;;;;;;;0.30;0.20;;;20.50;99.90;;;;;;5040909;28;20411;-84
2023/10/27 12:45:13;;;;;;;0.30;0.20;;;20.50;99.90;;;;;;5041260;28;21018;-85
2023/10/27 12:47:42;;;;;;;0.30;0.20;;;20.50;99.90;;;;;;5038000;28;20212;-81
2023/10/27 12:50:08;;;;;;;0.30;0.20;;;20.50;99.90;;;;;;5036960;28;20535;-81